Time;durP1;ratioP1;P1;durP2;ratioP2;P2;SDS_P1;SDS_P2;PMS_P1;PMS_P2;Temp;Humidity;BMP_temperature;BMP_pressure;BME280_temperature;BME280_humidity;BME280_pressure;Samples;Min_cycle;Max_cycle;Signal;HPM_P1;HPM_P2
2021/07/06 00:00:39;;;;;;;4.13;3.55;;;19.40;77.00;;;;;;5057945;28;20029;-74
2021/07/06 00:03:05;;;;;;;4.70;4.18;;;19.40;77.10;;;;;;5057932;28;20024;-74
2021/07/06 00:05:31;;;;;;;3.53;3.22;;;19.40;77.20;;;;;;5075820;28;20055;-74
2021/07/06 00:07:57;;;;;;;4.75;3.50;;;19.40;77.30;;;;;;5057780;28;20043;-74
2021/07/06 00:10:24;;;;;;;3.55;3.20;;;19.40;77.40;;;;;;5057866;28;20032;-74
2021/07/06 00:12:50;;;;;;;5.03;3.60;;;19.40;77.50;;;;;;5075649;28;20500;-74
2021/07/06 00:15:23;;;;;;;4.55;3.95;;;19.40;77.60;;;;;;5057643;28;20480;-73
2021/07/06 00:17:50;;;;;;;4.32;3.25;;;19.40;77.80;;;;;;5058091;28;20096;-73
2021/07/06 00:20:16;;;;;;;5.22;3.75;;;19.40;77.90;;;;;;5075735;28;20025;-74
2021/07/06 00:22:42;;;;;;;4.20;3.60;;;19.30;78.00;;;;;;5057598;28;20074;-73
2021/07/06 00:25:09;;;;;;;4.03;3.15;;;19.30;78.20;;;;;;5057559;28;20028;-73
2021/07/06 00:27:34;;;;;;;5.35;3.00;;;19.30;78.40;;;;;;5075396;28;20033;-73
2021/07/06 00:30:00;;;;;;;3.33;2.95;;;19.30;79.20;;;;;;5075462;28;20372;-73
2021/07/06 00:32:25;;;;;;;2.95;2.47;;;19.30;78.70;;;;;;5057343;28;20024;-73
2021/07/06 00:34:51;;;;;;;2.20;2.00;;;19.30;78.80;;;;;;5057474;28;20104;-73
2021/07/06 00:37:17;;;;;;;2.15;1.80;;;19.30;79.00;;;;;;5057325;28;20106;-73
2021/07/06 00:39:42;;;;;;;2.47;2.08;;;19.30;79.00;;;;;;5057281;28;20035;-74
2021/07/06 00:42:09;;;;;;;2.60;1.70;;;19.30;79.00;;;;;;5075441;28;20036;-73
2021/07/06 00:44:35;;;;;;;1.70;1.60;;;19.30;79.10;;;;;;5075068;28;20098;-73
2021/07/06 00:47:02;;;;;;;1.73;1.63;;;19.30;79.10;;;;;;5075355;28;20024;-73
2021/07/06 00:49:28;;;;;;;1.70;1.60;;;19.30;79.10;;;;;;5075014;28;20032;-73
2021/07/06 00:51:53;;;;;;;3.35;1.50;;;19.40;79.30;;;;;;5057461;28;20087;-73
2021/07/06 00:54:19;;;;;;;2.55;1.33;;;19.40;79.30;;;;;;5057041;28;20421;-73
2021/07/06 00:56:45;;;;;;;2.00;1.52;;;19.40;79.40;;;;;;5056957;28;20392;-72
2021/07/06 00:59:12;;;;;;;1.60;1.48;;;19.40;79.40;;;;;;5056764;28;20086;-73
2021/07/06 01:01:38;;;;;;;3.13;1.45;;;19.40;79.40;;;;;;5056776;28;20116;-73
2021/07/06 01:04:04;;;;;;;2.17;1.58;;;19.40;79.50;;;;;;5056935;28;20055;-74
2021/07/06 01:06:30;;;;;;;2.35;1.50;;;19.40;79.60;;;;;;5074657;28;20025;-73
2021/07/06 01:08:55;;;;;;;1.50;1.40;;;19.40;79.60;;;;;;5057007;28;20032;-74
2021/07/06 01:11:22;;;;;;;1.88;1.42;;;19.40;79.70;;;;;;5056769;28;20064;-74
2021/07/06 01:13:48;;;;;;;1.58;1.40;;;19.40;79.80;;;;;;5074460;28;20048;-73
2021/07/06 01:16:14;;;;;;;1.30;1.13;;;19.40;79.80;;;;;;5056547;28;20021;-72
2021/07/06 01:18:40;;;;;;;1.30;1.20;;;19.40;79.80;;;;;;5056447;28;20032;-73
2021/07/06 01:21:06;;;;;;;1.40;1.30;;;19.40;79.90;;;;;;5074601;28;20035;-73
2021/07/06 01:23:32;;;;;;;1.98;1.30;;;19.40;79.90;;;;;;5056495;28;20127;-73
2021/07/06 01:26:02;;;;;;;1.35;1.25;;;19.40;80.00;;;;;;5056383;28;20024;-73
2021/07/06 01:28:28;;;;;;;1.30;1.20;;;19.40;80.00;;;;;;5074241;28;20082;-73
2021/07/06 01:30:53;;;;;;;1.00;1.00;;;19.40;80.00;;;;;;5056309;28;20032;-73
2021/07/06 01:33:25;;;;;;;1.30;1.20;;;19.40;80.00;;;;;;5056370;28;20108;-73
2021/07/06 01:35:53;;;;;;;1.05;0.98;;;19.40;80.10;;;;;;5056256;28;20408;-73
2021/07/06 01:38:19;;;;;;;1.00;1.00;;;19.50;80.10;;;;;;5056289;28;20048;-74
2021/07/06 01:40:45;;;;;;;1.88;1.17;;;19.50;80.70;;;;;;5074078;28;20048;-73
2021/07/06 01:43:11;;;;;;;2.03;1.00;;;19.50;80.10;;;;;;5074078;28;20032;-73
2021/07/06 01:45:37;;;;;;;1.20;1.10;;;19.50;80.10;;;;;;5056383;28;20036;-73
2021/07/06 01:48:04;;;;;;;1.50;0.90;;;19.50;80.30;;;;;;5074208;28;20071;-72
2021/07/06 01:50:32;;;;;;;1.88;0.80;;;19.50;80.30;;;;;;5055976;28;20499;-74
2021/07/06 01:53:00;;;;;;;1.00;1.00;;;19.50;80.30;;;;;;5056004;28;20020;-73
2021/07/06 01:55:31;;;;;;;0.77;0.70;;;19.50;80.40;;;;;;5055961;28;20487;-73
2021/07/06 01:57:59;;;;;;;0.80;0.80;;;19.50;80.50;;;;;;5055850;28;20064;-73
2021/07/06 02:00:27;;;;;;;1.00;0.70;;;19.40;80.40;;;;;;5073598;28;20111;-73
2021/07/06 02:02:57;;;;;;;0.80;0.80;;;19.40;80.40;;;;;;5055776;28;20381;-73
2021/07/06 02:05:38;;;;;;;1.67;0.40;;;19.40;80.40;;;;;;5073718;28;20035;-73
2021/07/06 02:08:09;;;;;;;0.77;0.77;;;19.40;80.40;;;;;;5055566;28;20394;-73
2021/07/06 02:10:36;;;;;;;1.42;0.88;;;19.40;80.50;;;;;;5072938;28;20028;-73
2021/07/06 02:13:04;;;;;;;0.60;0.50;;;19.30;80.40;;;;;;5055306;28;20043;-74
2021/07/06 02:15:30;;;;;;;0.80;0.70;;;19.30;80.50;;;;;;5055426;28;20031;-73
2021/07/06 02:17:56;;;;;;;0.60;0.50;;;19.40;80.50;;;;;;5055725;28;20032;-73
2021/07/06 02:20:22;;;;;;;0.50;0.50;;;19.30;80.50;;;;;;5055496;28;20082;-73
2021/07/06 02:22:49;;;;;;;0.50;0.50;;;19.30;80.50;;;;;;5055364;28;20035;-72
2021/07/06 02:25:17;;;;;;;0.63;0.50;;;19.30;80.60;;;;;;5055346;28;20032;-73
2021/07/06 02:27:45;;;;;;;0.75;0.60;;;19.30;80.70;;;;;;5073116;28;20052;-72
2021/07/06 02:30:12;;;;;;;0.40;0.40;;;19.30;80.70;;;;;;5055403;28;20027;-72
2021/07/06 02:32:38;;;;;;;0.50;0.50;;;19.20;80.70;;;;;;5073103;28;20031;-72
2021/07/06 02:35:06;;;;;;;0.85;0.70;;;19.20;80.90;;;;;;5055168;28;20024;-73
2021/07/06 02:37:32;;;;;;;0.60;0.60;;;19.10;81.00;;;;;;5073036;28;20107;-73
2021/07/06 02:39:57;;;;;;;1.02;0.70;;;19.10;81.10;;;;;;5055289;28;20049;-73
2021/07/06 02:42:23;;;;;;;0.98;0.73;;;19.00;81.30;;;;;;5073085;28;20020;-73
2021/07/06 02:44:49;;;;;;;1.25;0.70;;;18.90;81.50;;;;;;5055406;28;20171;-73
2021/07/06 02:47:14;;;;;;;0.90;0.70;;;18.90;81.60;;;;;;5054985;28;20036;-73
2021/07/06 02:49:40;;;;;;;0.82;0.77;;;18.90;81.80;;;;;;5072926;28;20024;-72
2021/07/06 02:52:06;;;;;;;0.77;0.77;;;18.90;81.90;;;;;;5073006;28;20032;-74
2021/07/06 02:54:31;;;;;;;1.05;0.68;;;18.90;82.00;;;;;;5073151;28;20494;-73
2021/07/06 02:56:57;;;;;;;1.10;1.00;;;18.90;82.10;;;;;;5073034;28;20043;-73
2021/07/06 02:59:22;;;;;;;1.52;1.10;;;18.90;82.20;;;;;;5054803;28;20536;-73
2021/07/06 03:01:48;;;;;;;1.25;1.00;;;18.80;82.30;;;;;;5054869;28;20025;-73
2021/07/06 03:04:13;;;;;;;0.65;0.63;;;18.80;82.30;;;;;;5072855;28;20032;-72
2021/07/06 03:06:39;;;;;;;0.98;0.95;;;18.80;82.40;;;;;;5054774;28;20016;-73
2021/07/06 03:09:05;;;;;;;1.30;0.65;;;18.70;82.50;;;;;;5055016;28;20031;-73
2021/07/06 03:11:30;;;;;;;1.35;0.90;;;18.70;82.60;;;;;;5072652;28;20460;-73
2021/07/06 03:13:56;;;;;;;0.80;0.80;;;18.70;82.70;;;;;;5054631;28;20048;-73
2021/07/06 03:16:21;;;;;;;0.50;0.50;;;18.60;82.70;;;;;;5072697;28;20027;-72
2021/07/06 03:18:47;;;;;;;0.77;0.70;;;18.60;82.70;;;;;;5072743;28;20145;-73
2021/07/06 03:21:13;;;;;;;0.80;0.60;;;18.60;82.80;;;;;;5054634;28;20021;-73
2021/07/06 03:23:38;;;;;;;0.60;0.60;;;18.60;82.80;;;;;;5076163;28;20463;-73
2021/07/06 03:26:04;;;;;;;0.73;0.70;;;18.60;82.90;;;;;;5076490;28;20388;-72
2021/07/06 03:28:29;;;;;;;0.80;0.80;;;18.60;82.90;;;;;;5058584;28;20036;-73
2021/07/06 03:30:55;;;;;;;0.93;0.93;;;18.60;82.90;;;;;;5058921;28;20024;-73
2021/07/06 03:33:21;;;;;;;1.60;0.82;;;18.60;82.90;;;;;;5058863;28;20017;-73
2021/07/06 03:35:46;;;;;;;1.00;1.00;;;18.60;82.90;;;;;;5076543;28;20095;-73
2021/07/06 03:38:13;;;;;;;0.90;0.90;;;18.60;83.10;;;;;;5058554;28;20032;-72
2021/07/06 03:40:40;;;;;;;1.13;0.70;;;18.50;83.00;;;;;;5058474;28;20491;-74
2021/07/06 03:43:08;;;;;;;2.15;0.75;;;18.50;83.10;;;;;;5058395;28;20026;-73
2021/07/06 03:45:34;;;;;;;1.10;0.98;;;18.60;83.20;;;;;;5058345;28;20020;-74
2021/07/06 03:47:59;;;;;;;0.95;0.77;;;18.60;83.20;;;;;;5058258;28;20070;-73
2021/07/06 03:50:26;;;;;;;0.70;0.70;;;18.50;83.20;;;;;;5058628;28;20052;-74
2021/07/06 03:52:56;;;;;;;0.70;0.70;;;18.50;83.30;;;;;;5058264;28;20049;-73
2021/07/06 03:55:24;;;;;;;1.08;0.93;;;18.60;83.40;;;;;;5058154;28;20044;-73
2021/07/06 03:57:50;;;;;;;1.50;0.50;;;18.60;83.30;;;;;;5058199;28;20047;-73
2021/07/06 04:00:18;;;;;;;0.95;0.60;;;18.60;83.30;;;;;;5058045;28;20080;-73
2021/07/06 04:02:44;;;;;;;0.70;0.50;;;18.60;83.20;;;;;;5058032;28;20036;-73
2021/07/06 04:05:11;;;;;;;0.90;0.70;;;18.70;83.10;;;;;;5058138;28;20418;-73
2021/07/06 04:07:38;;;;;;;0.70;0.70;;;18.70;83.10;;;;;;5057912;28;20036;-72
2021/07/06 04:10:07;;;;;;;1.20;0.50;;;18.70;82.90;;;;;;5057973;28;20495;-72
2021/07/06 04:12:33;;;;;;;1.52;0.80;;;18.80;82.90;;;;;;5057569;28;20016;-74
2021/07/06 04:14:58;;;;;;;0.68;0.68;;;18.80;82.90;;;;;;5075689;28;20032;-73
2021/07/06 04:17:24;;;;;;;0.93;0.77;;;18.80;82.90;;;;;;5075640;28;20025;-73
2021/07/06 04:19:50;;;;;;;0.77;0.77;;;18.90;82.90;;;;;;5054957;28;20479;-73
2021/07/06 04:22:16;;;;;;;0.88;0.65;;;18.90;82.80;;;;;;5075665;28;20025;-73
2021/07/06 04:24:41;;;;;;;0.88;0.88;;;18.90;82.70;;;;;;5057611;28;20021;-74
2021/07/06 04:27:07;;;;;;;1.10;0.77;;;19.00;82.70;;;;;;5033454;28;20453;-74
2021/07/06 04:29:32;;;;;;;1.15;0.80;;;19.00;82.60;;;;;;5033008;28;20037;-73
2021/07/06 04:31:58;;;;;;;1.92;0.80;;;19.00;82.60;;;;;;5017037;28;20029;-74
2021/07/06 04:34:24;;;;;;;1.15;0.77;;;19.10;82.60;;;;;;5032892;28;20018;-73
2021/07/06 04:36:50;;;;;;;2.35;1.05;;;19.10;82.50;;;;;;5016668;28;20038;-73
2021/07/06 04:39:16;;;;;;;0.70;0.70;;;19.10;82.50;;;;;;5016726;28;20080;-73
2021/07/06 04:41:44;;;;;;;1.15;0.85;;;19.10;82.30;;;;;;5016632;28;20069;-74
2021/07/06 04:44:10;;;;;;;1.63;1.00;;;19.20;82.30;;;;;;5033236;28;20033;-73
2021/07/06 04:46:35;;;;;;;2.58;0.95;;;19.20;82.30;;;;;;5033047;28;20033;-74
2021/07/06 04:49:01;;;;;;;1.90;1.05;;;19.20;82.30;;;;;;5016404;28;20033;-74
2021/07/06 04:51:27;;;;;;;1.35;0.90;;;19.20;82.20;;;;;;5033272;28;20026;-73
2021/07/06 04:53:52;;;;;;;1.15;0.80;;;19.20;82.30;;;;;;5016382;28;20033;-73
2021/07/06 04:56:18;;;;;;;1.05;0.93;;;19.20;82.30;;;;;;5016627;28;20540;-73
2021/07/06 04:58:44;;;;;;;1.70;0.98;;;19.30;82.30;;;;;;5065110;28;20083;-73
2021/07/06 05:01:10;;;;;;;0.80;0.80;;;19.30;82.30;;;;;;5057008;28;20056;-73
2021/07/06 05:03:37;;;;;;;1.77;0.75;;;19.30;82.20;;;;;;5056881;28;20056;-73
2021/07/06 05:06:03;;;;;;;1.05;1.00;;;19.40;82.20;;;;;;5056907;28;20025;-73
2021/07/06 05:08:29;;;;;;;0.80;0.80;;;19.40;82.10;;;;;;5074686;28;20024;-73
2021/07/06 05:10:56;;;;;;;1.90;0.80;;;19.40;82.80;;;;;;5056640;28;20020;-73
2021/07/06 05:13:24;;;;;;;1.17;0.80;;;19.50;82.00;;;;;;5056464;28;20044;-73
2021/07/06 05:15:50;;;;;;;1.52;0.70;;;19.50;81.80;;;;;;5056613;28;20024;-73
2021/07/06 05:18:16;;;;;;;1.38;0.88;;;19.60;81.70;;;;;;5056729;28;20414;-73
2021/07/06 05:20:42;;;;;;;1.38;0.90;;;19.60;81.50;;;;;;5056520;28;20115;-73
2021/07/06 05:23:07;;;;;;;1.90;0.80;;;19.70;81.30;;;;;;5056478;28;20482;-74
2021/07/06 05:25:33;;;;;;;0.88;0.75;;;19.70;81.10;;;;;;5056513;28;20472;-73
2021/07/06 05:27:58;;;;;;;0.80;0.80;;;19.80;81.00;;;;;;5074112;28;20031;-73
2021/07/06 05:30:24;;;;;;;1.95;0.93;;;19.80;80.90;;;;;;5056400;28;20017;-73
2021/07/06 05:32:50;;;;;;;0.73;0.63;;;19.90;80.80;;;;;;5074196;28;20056;-74
2021/07/06 05:35:15;;;;;;;1.17;0.80;;;19.90;80.70;;;;;;5056312;28;20447;-74
2021/07/06 05:37:41;;;;;;;0.80;0.80;;;19.90;80.60;;;;;;5056659;28;20025;-74
2021/07/06 05:40:10;;;;;;;0.85;0.80;;;19.90;80.50;;;;;;5074111;28;20484;-73
2021/07/06 05:42:37;;;;;;;1.05;0.98;;;19.90;80.50;;;;;;5055997;28;20039;-73
2021/07/06 05:45:05;;;;;;;1.30;0.70;;;19.90;80.30;;;;;;5055199;28;20024;-72
2021/07/06 05:47:35;;;;;;;3.13;0.85;;;20.00;80.30;;;;;;5073813;28;20032;-73
2021/07/06 05:50:03;;;;;;;1.42;0.95;;;20.00;80.10;;;;;;5055954;28;20031;-73
2021/07/06 05:52:28;;;;;;;3.17;1.00;;;20.00;80.10;;;;;;5056053;28;20039;-73
2021/07/06 05:54:55;;;;;;;2.85;0.90;;;20.10;80.00;;;;;;5073747;28;20100;-73
2021/07/06 05:57:29;;;;;;;0.82;0.82;;;20.10;79.90;;;;;;5056197;28;20016;-73
2021/07/06 05:59:56;;;;;;;0.93;0.90;;;20.10;79.80;;;;;;5055738;28;20021;-73
2021/07/06 06:02:22;;;;;;;2.92;1.20;;;20.10;79.60;;;;;;5055755;28;20102;-73
2021/07/06 06:04:48;;;;;;;2.08;0.90;;;20.20;79.60;;;;;;5073475;28;20485;-73
2021/07/06 06:07:13;;;;;;;2.28;0.90;;;20.20;79.50;;;;;;5055536;28;20048;-73
2021/07/06 06:09:39;;;;;;;1.38;0.90;;;20.20;79.40;;;;;;5073408;28;20029;-72
2021/07/06 06:12:05;;;;;;;2.78;1.02;;;20.20;79.40;;;;;;5055768;28;20094;-74
2021/07/06 06:14:30;;;;;;;0.80;0.80;;;20.30;79.40;;;;;;5055252;28;20099;-73
2021/07/06 06:16:56;;;;;;;1.20;0.82;;;20.30;79.40;;;;;;5073579;28;20028;-73
2021/07/06 06:19:21;;;;;;;0.98;0.77;;;20.30;79.40;;;;;;5055384;28;20021;-73
2021/07/06 06:21:47;;;;;;;2.70;1.30;;;20.40;79.50;;;;;;5055429;28;20460;-72
2021/07/06 06:24:12;;;;;;;1.52;1.00;;;20.30;79.30;;;;;;5055254;28;20384;-73
2021/07/06 06:26:38;;;;;;;1.17;1.00;;;20.40;79.30;;;;;;5055570;28;20025;-72
2021/07/06 06:29:04;;;;;;;2.88;1.00;;;20.40;79.30;;;;;;5073088;28;20028;-71
2021/07/06 06:31:29;;;;;;;2.22;1.00;;;20.40;79.30;;;;;;5073249;28;20013;-80
2021/07/06 06:33:55;;;;;;;2.15;0.85;;;20.40;79.20;;;;;;5052502;28;20025;-77
2021/07/06 06:36:21;;;;;;;1.02;0.93;;;20.40;79.20;;;;;;5055143;28;20059;-73
2021/07/06 06:38:46;;;;;;;1.02;0.73;;;20.40;79.20;;;;;;5055191;28;20035;-73
2021/07/06 06:41:12;;;;;;;1.20;0.77;;;20.50;79.20;;;;;;5054977;28;20033;-74
2021/07/06 06:43:38;;;;;;;1.80;1.08;;;20.50;79.10;;;;;;5055048;28;20020;-74
2021/07/06 06:46:04;;;;;;;1.52;1.00;;;20.50;79.00;;;;;;5055140;28;20016;-74
2021/07/06 06:48:30;;;;;;;1.58;0.90;;;20.50;79.00;;;;;;5054933;28;20554;-74
2021/07/06 06:50:56;;;;;;;2.63;1.00;;;20.50;79.00;;;;;;5072881;28;20027;-74
2021/07/06 06:53:21;;;;;;;2.10;0.90;;;20.60;79.00;;;;;;5072829;28;20024;-74
2021/07/06 06:55:47;;;;;;;2.67;0.80;;;20.60;79.00;;;;;;5054796;28;20439;-74
2021/07/06 06:58:13;;;;;;;2.15;0.93;;;20.60;79.00;;;;;;5072806;28;20024;-73
2021/07/06 07:00:38;;;;;;;2.78;0.90;;;20.60;78.90;;;;;;5072542;28;20054;-73
2021/07/06 07:03:04;;;;;;;1.20;0.90;;;20.60;78.90;;;;;;5073006;28;20082;-73
2021/07/06 07:05:29;;;;;;;2.63;1.00;;;20.70;79.00;;;;;;5054844;28;20048;-73
2021/07/06 07:07:58;;;;;;;1.27;1.02;;;20.70;78.90;;;;;;5072782;28;20023;-75
2021/07/06 07:10:25;;;;;;;2.00;0.75;;;20.70;78.90;;;;;;5054786;28;20495;-74
2021/07/06 07:12:53;;;;;;;0.98;0.90;;;20.70;78.80;;;;;;5050028;28;20409;-73
2021/07/06 07:15:19;;;;;;;1.27;1.10;;;20.80;78.80;;;;;;5034729;28;20017;-73
2021/07/06 07:17:45;;;;;;;1.40;1.17;;;20.80;78.70;;;;;;5035047;28;20060;-74
2021/07/06 07:20:12;;;;;;;1.83;1.00;;;20.80;79.30;;;;;;5052665;28;20060;-74
2021/07/06 07:22:38;;;;;;;2.45;0.85;;;20.90;78.60;;;;;;5034645;28;20024;-74
2021/07/06 07:25:04;;;;;;;1.98;0.90;;;20.90;78.50;;;;;;5034754;28;20116;-73
2021/07/06 07:27:29;;;;;;;1.73;1.00;;;21.00;78.30;;;;;;5052439;28;20040;-73
2021/07/06 07:29:56;;;;;;;1.63;0.95;;;21.00;78.20;;;;;;5052645;28;20021;-74
2021/07/06 07:32:22;;;;;;;1.20;0.75;;;21.10;78.10;;;;;;5052617;28;20039;-72
2021/07/06 07:34:48;;;;;;;1.98;0.93;;;21.10;77.90;;;;;;5034668;28;20021;-73
2021/07/06 07:37:14;;;;;;;2.30;0.98;;;21.10;77.70;;;;;;5034601;28;20472;-73
2021/07/06 07:39:40;;;;;;;1.67;0.77;;;21.20;77.70;;;;;;5052379;28;20087;-73
2021/07/06 07:42:06;;;;;;;0.90;0.90;;;21.20;77.50;;;;;;5034528;28;20024;-73
2021/07/06 07:44:32;;;;;;;1.23;0.68;;;21.30;77.40;;;;;;5034975;28;20381;-73
2021/07/06 07:46:58;;;;;;;1.27;0.90;;;21.30;77.30;;;;;;5034523;28;20056;-74
2021/07/06 07:49:24;;;;;;;0.88;0.82;;;21.40;77.10;;;;;;5052234;28;20049;-74
2021/07/06 07:51:49;;;;;;;1.08;0.70;;;21.40;77.00;;;;;;5052447;28;20059;-74
2021/07/06 07:54:16;;;;;;;0.70;0.70;;;21.40;76.70;;;;;;5034536;28;20052;-73
2021/07/06 07:56:41;;;;;;;0.93;0.70;;;21.40;76.70;;;;;;5052319;28;20024;-74
2021/07/06 07:59:12;;;;;;;2.42;0.70;;;21.30;76.40;;;;;;5052284;28;20029;-73
2021/07/06 08:01:38;;;;;;;1.58;0.77;;;21.40;76.10;;;;;;5052039;28;20021;-73
2021/07/06 08:04:03;;;;;;;1.05;0.70;;;21.40;75.90;;;;;;5034694;28;20028;-73
2021/07/06 08:06:29;;;;;;;0.80;0.65;;;21.50;75.50;;;;;;5052259;28;20381;-74
2021/07/06 08:08:55;;;;;;;0.80;0.55;;;21.60;74.70;;;;;;5036355;28;20020;-73
2021/07/06 08:11:21;;;;;;;0.70;0.40;;;21.60;74.40;;;;;;5037919;28;20026;-74
2021/07/06 08:13:47;;;;;;;0.63;0.52;;;21.60;74.10;;;;;;5068044;28;20460;-73
2021/07/06 08:16:13;;;;;;;0.93;0.50;;;21.60;73.90;;;;;;5075789;28;20025;-73
2021/07/06 08:18:40;;;;;;;1.23;0.82;;;21.60;73.50;;;;;;5057661;28;20036;-73
2021/07/06 08:21:06;;;;;;;0.90;0.55;;;21.70;73.50;;;;;;5075809;28;20299;-75
2021/07/06 08:23:32;;;;;;;0.65;0.60;;;21.80;73.30;;;;;;5057704;28;20480;-73
2021/07/06 08:25:57;;;;;;;0.80;0.68;;;21.70;72.70;;;;;;5057403;28;20095;-74
2021/07/06 08:28:23;;;;;;;2.67;0.60;;;21.70;72.50;;;;;;5075743;28;20361;-74
2021/07/06 08:30:50;;;;;;;0.57;0.57;;;21.60;72.50;;;;;;5057353;28;20027;-73
2021/07/06 08:33:16;;;;;;;1.10;0.60;;;21.60;72.50;;;;;;5057606;28;20108;-74
2021/07/06 08:35:41;;;;;;;3.53;0.70;;;21.70;72.50;;;;;;5075450;28;20059;-73
2021/07/06 08:38:07;;;;;;;0.98;0.63;;;21.70;72.30;;;;;;5057222;28;20032;-73
2021/07/06 08:40:33;;;;;;;1.75;0.70;;;21.80;72.00;;;;;;5057638;28;20024;-75
2021/07/06 08:43:03;;;;;;;2.97;0.80;;;21.90;71.60;;;;;;5057451;28;20023;-73
2021/07/06 08:45:29;;;;;;;2.55;0.52;;;22.00;71.20;;;;;;5057167;28;20037;-73
2021/07/06 08:47:56;;;;;;;0.50;0.50;;;22.20;71.10;;;;;;5075174;28;20032;-74
2021/07/06 08:50:23;;;;;;;1.85;0.70;;;22.30;70.30;;;;;;5057023;28;20023;-73
2021/07/06 08:52:49;;;;;;;0.65;0.50;;;22.30;70.00;;;;;;5071954;28;20116;-74
2021/07/06 08:55:16;;;;;;;0.60;0.50;;;22.40;69.80;;;;;;5057107;28;20024;-74
2021/07/06 08:57:44;;;;;;;1.75;0.70;;;22.50;69.60;;;;;;5074978;28;20095;-74
2021/07/06 09:00:12;;;;;;;1.90;0.50;;;22.60;69.20;;;;;;5057381;28;20536;-74
2021/07/06 09:02:38;;;;;;;0.68;0.60;;;22.60;68.90;;;;;;5074872;28;20477;-74
2021/07/06 09:05:04;;;;;;;0.32;0.32;;;22.60;68.70;;;;;;5053772;28;20105;-73
2021/07/06 09:07:41;;;;;;;1.75;0.50;;;22.60;68.50;;;;;;5074680;28;20025;-74
2021/07/06 09:10:17;;;;;;;0.95;0.60;;;22.60;68.10;;;;;;5057309;28;20064;-74
2021/07/06 09:12:44;;;;;;;1.85;0.50;;;22.50;67.80;;;;;;5056610;28;20433;-74
2021/07/06 09:15:27;;;;;;;1.48;0.57;;;22.50;67.70;;;;;;5056704;28;20028;-74
2021/07/06 09:18:16;;;;;;;1.63;0.55;;;22.50;67.70;;;;;;5074582;28;20488;-73
2021/07/06 09:21:03;;;;;;;1.80;0.60;;;22.60;67.30;;;;;;5056552;28;20047;-74
2021/07/06 09:23:34;;;;;;;0.88;0.50;;;22.60;67.20;;;;;;5056933;28;20053;-73
2021/07/06 09:26:09;;;;;;;2.70;0.60;;;22.60;67.00;;;;;;5074482;28;20111;-74
2021/07/06 09:28:40;;;;;;;2.33;0.68;;;22.70;66.80;;;;;;5056143;28;20123;-73
2021/07/06 09:31:24;;;;;;;0.55;0.43;;;22.70;66.70;;;;;;5056412;28;20032;-72
2021/07/06 09:33:58;;;;;;;2.35;0.60;;;22.70;66.30;;;;;;5056254;28;20032;-73
2021/07/06 09:36:25;;;;;;;1.00;0.60;;;22.80;66.50;;;;;;5056306;28;20428;-73
2021/07/06 09:39:09;;;;;;;0.82;0.50;;;22.80;66.40;;;;;;5056191;28;20029;-73
2021/07/06 09:41:35;;;;;;;1.08;0.65;;;22.90;66.00;;;;;;5056185;28;20032;-73
2021/07/06 09:44:15;;;;;;;1.45;0.70;;;23.10;66.00;;;;;;5056180;28;20369;-74
2021/07/06 09:46:49;;;;;;;1.88;0.60;;;23.10;65.40;;;;;;5056085;28;20035;-73
2021/07/06 09:49:20;;;;;;;0.73;0.60;;;23.10;65.20;;;;;;5056103;28;20450;-73
2021/07/06 09:51:47;;;;;;;2.45;0.75;;;23.00;65.00;;;;;;5073951;28;20070;-74
2021/07/06 09:54:34;;;;;;;2.15;0.60;;;22.90;65.00;;;;;;5055786;28;20034;-73
2021/07/06 09:57:14;;;;;;;1.65;0.60;;;22.90;65.00;;;;;;5073709;28;20025;-74
2021/07/06 10:00:15;;;;;;;1.27;0.60;;;22.80;65.20;;;;;;5073784;28;20025;-73
2021/07/06 10:02:42;;;;;;;2.20;0.55;;;22.80;65.40;;;;;;5004044;28;20118;-74
2021/07/06 10:05:16;;;;;;;2.85;0.88;;;22.70;65.60;;;;;;5055685;28;20400;-73
2021/07/06 10:07:42;;;;;;;1.23;0.52;;;22.60;65.40;;;;;;5073369;28;20047;-73
2021/07/06 10:10:11;;;;;;;1.95;0.70;;;22.40;65.50;;;;;;5055556;28;20025;-73
2021/07/06 10:15:59;;;;;;;1.30;0.70;;;22.50;65.40;;;;;;5072586;28;20071;-74
2021/07/06 10:18:24;;;;;;;2.33;0.60;;;22.80;65.10;;;;;;5055519;28;20439;-73
2021/07/06 10:24:14;;;;;;;1.35;0.63;;;22.80;64.60;;;;;;5073428;28;20027;-74
2021/07/06 10:26:41;;;;;;;2.97;0.85;;;22.90;64.30;;;;;;5073410;28;20040;-74
2021/07/06 10:29:06;;;;;;;2.42;0.80;;;22.90;64.10;;;;;;5055178;28;20086;-74
2021/07/06 10:31:40;;;;;;;1.10;0.60;;;23.00;64.00;;;;;;5072789;28;20024;-74
2021/07/06 10:34:19;;;;;;;3.20;0.75;;;23.10;63.70;;;;;;5055145;28;20459;-75
2021/07/06 10:36:45;;;;;;;1.67;0.80;;;23.10;63.40;;;;;;5055248;28;20424;-74
2021/07/06 10:39:13;;;;;;;2.60;0.73;;;23.10;63.20;;;;;;5055109;28;20027;-74
2021/07/06 10:41:38;;;;;;;2.80;0.90;;;23.10;62.80;;;;;;5055064;28;20041;-74
2021/07/06 10:44:06;;;;;;;3.50;0.68;;;23.10;62.80;;;;;;5055108;28;20039;-74
2021/07/06 10:46:38;;;;;;;0.82;0.52;;;23.20;62.80;;;;;;5073009;28;20038;-73
2021/07/06 10:49:11;;;;;;;2.28;0.63;;;23.20;62.60;;;;;;5072948;28;20072;-73
2021/07/06 10:51:37;;;;;;;;;;;23.30;61.70;;;;;;5055451;28;20028;-74
2021/07/06 10:54:03;;;;;;;2.10;0.75;;;23.30;61.90;;;;;;5054875;28;19908;-74
2021/07/06 10:56:34;;;;;;;1.08;0.40;;;23.30;62.10;;;;;;5054904;28;20059;-73
2021/07/06 10:59:06;;;;;;;3.50;0.80;;;23.40;62.00;;;;;;5054861;28;20510;-73
2021/07/06 11:01:40;;;;;;;2.17;0.75;;;23.30;61.50;;;;;;5054660;28;20095;-73
2021/07/06 11:04:11;;;;;;;3.17;0.90;;;23.20;61.40;;;;;;5054748;28;20123;-73
2021/07/06 11:06:48;;;;;;;2.00;0.75;;;23.20;61.10;;;;;;5054681;28;20021;-73
2021/07/06 11:09:22;;;;;;;2.92;1.23;;;23.20;61.10;;;;;;5072997;28;20396;-73
2021/07/06 11:11:48;;;;;;;1.65;0.80;;;23.20;60.90;;;;;;5072735;28;20024;-73
2021/07/06 11:14:19;;;;;;;4.35;1.23;;;23.10;60.80;;;;;;5054927;28;20025;-74
2021/07/06 11:16:59;;;;;;;2.92;1.02;;;23.10;60.60;;;;;;5054687;28;20083;-74
2021/07/06 11:19:40;;;;;;;3.38;0.90;;;23.10;60.60;;;;;;5054564;28;20032;-74
2021/07/06 11:22:13;;;;;;;4.68;1.15;;;23.20;59.70;;;;;;5054827;28;20116;-74
2021/07/06 11:24:41;;;;;;;4.25;0.65;;;23.30;58.80;;;;;;5072654;28;20032;-73
2021/07/06 11:27:08;;;;;;;3.10;0.98;;;23.40;57.80;;;;;;5054683;28;20032;-74
2021/07/06 11:29:36;;;;;;;2.55;0.75;;;23.40;56.80;;;;;;5054530;28;20075;-73
2021/07/06 11:32:18;;;;;;;1.73;0.80;;;23.50;56.10;;;;;;5072529;28;20075;-74
2021/07/06 11:34:45;;;;;;;2.75;1.00;;;23.40;56.20;;;;;;5054650;28;20150;-74
2021/07/06 11:37:12;;;;;;;4.03;0.80;;;23.40;56.80;;;;;;5054569;28;20040;-74
2021/07/06 11:39:38;;;;;;;3.22;0.85;;;23.40;57.00;;;;;;5055001;28;20064;-74
2021/07/06 11:42:04;;;;;;;6.18;0.98;;;23.40;56.70;;;;;;5054373;28;20558;-74
2021/07/06 11:44:31;;;;;;;6.53;1.17;;;23.40;56.80;;;;;;5057533;28;20016;-74
2021/07/06 11:47:18;;;;;;;4.68;1.00;;;23.40;56.60;;;;;;5076504;28;20485;-75
2021/07/06 11:49:44;;;;;;;3.72;1.00;;;23.40;55.80;;;;;;5076193;28;20056;-74
2021/07/06 11:52:10;;;;;;;1.90;0.88;;;23.30;55.60;;;;;;5058276;28;20029;-75
2021/07/06 11:54:41;;;;;;;6.35;0.93;;;23.40;55.40;;;;;;5058286;28;20123;-74
2021/07/06 11:57:07;;;;;;;3.10;0.90;;;23.50;54.40;;;;;;5057949;28;20024;-74
2021/07/06 11:59:35;;;;;;;2.28;0.70;;;23.50;54.30;;;;;;5076177;28;20032;-74
2021/07/06 12:02:12;;;;;;;2.70;0.70;;;23.50;54.10;;;;;;5058049;28;20035;-75
2021/07/06 12:04:38;;;;;;;2.70;0.90;;;23.50;54.20;;;;;;5075984;28;20031;-75
2021/07/06 12:07:10;;;;;;;2.28;0.80;;;23.50;53.70;;;;;;5075922;28;20029;-75
2021/07/06 12:09:37;;;;;;;2.85;0.77;;;23.50;53.70;;;;;;5075912;28;20488;-74
2021/07/06 12:12:07;;;;;;;2.65;1.13;;;23.50;54.00;;;;;;5075895;28;20111;-74
2021/07/06 12:14:32;;;;;;;3.30;0.85;;;23.50;53.10;;;;;;5057740;28;20040;-74
2021/07/06 12:16:59;;;;;;;1.17;0.57;;;23.50;53.30;;;;;;5057886;28;20032;-74
2021/07/06 12:19:28;;;;;;;2.05;0.93;;;23.60;52.90;;;;;;5057816;28;20025;-74
2021/07/06 12:21:55;;;;;;;3.45;1.02;;;23.60;52.80;;;;;;5057708;28;20075;-74
2021/07/06 12:24:27;;;;;;;2.45;0.93;;;23.60;53.00;;;;;;5057902;28;20555;-74
2021/07/06 12:26:55;;;;;;;2.85;0.80;;;23.60;52.70;;;;;;5057758;28;20108;-74
2021/07/06 12:29:28;;;;;;;2.60;1.05;;;23.80;52.90;;;;;;5075472;28;20028;-74
2021/07/06 12:31:54;;;;;;;2.72;1.05;;;23.80;52.70;;;;;;5075583;28;20424;-74
2021/07/06 12:34:20;;;;;;;1.98;0.93;;;23.90;52.50;;;;;;5057328;28;20028;-74
2021/07/06 12:36:58;;;;;;;2.47;1.00;;;24.00;51.80;;;;;;5072588;28;20032;-74
2021/07/06 12:39:45;;;;;;;2.70;0.88;;;24.00;51.90;;;;;;5075391;28;20029;-74
2021/07/06 12:42:23;;;;;;;4.30;1.23;;;24.00;51.60;;;;;;5057396;28;20024;-74
2021/07/06 12:44:58;;;;;;;1.65;0.70;;;24.00;51.70;;;;;;5075426;28;20103;-75
2021/07/06 12:47:27;;;;;;;2.92;0.77;;;24.00;51.80;;;;;;5075224;28;20029;-74
2021/07/06 12:50:02;;;;;;;2.92;1.10;;;24.00;51.70;;;;;;5057187;28;20029;-74
2021/07/06 12:52:39;;;;;;;2.83;0.88;;;24.00;51.70;;;;;;5057194;28;20021;-74
2021/07/06 12:55:06;;;;;;;1.35;0.80;;;24.00;51.60;;;;;;5073262;28;20031;-75
2021/07/06 12:57:32;;;;;;;3.22;0.82;;;23.90;51.80;;;;;;5074848;28;20055;-73